createdAt,value
2023-05-22T00:00:17.811Z,97987.34
2023-05-22T00:03:08.526Z,97988.56
2023-05-22T00:05:59.020Z,97987.47
2023-05-22T00:08:47.285Z,97984.34
2023-05-22T00:11:36.614Z,97976.88
2023-05-22T00:14:24.527Z,97973.59
2023-05-22T00:17:15.164Z,97979.50
2023-05-22T00:20:07.150Z,97976.38
2023-05-22T00:22:57.202Z,97972.44
2023-05-22T00:25:44.794Z,97973.81
2023-05-22T00:28:32.654Z,97971.16
2023-05-22T00:31:20.319Z,97961.00
2023-05-22T00:34:08.444Z,97966.28
2023-05-22T00:36:59.611Z,97962.94
2023-05-22T00:39:47.917Z,97961.66
2023-05-22T00:42:35.746Z,97959.75
2023-05-22T00:45:23.496Z,97963.44
2023-05-22T00:48:12.392Z,97964.47
2023-05-22T00:51:01.959Z,97961.66
2023-05-22T00:53:53.329Z,97963.31
2023-05-22T00:56:43.146Z,97962.41
2023-05-22T00:59:32.290Z,97963.97
2023-05-22T01:02:21.181Z,97965.56
2023-05-22T01:05:11.313Z,97967.56
2023-05-22T01:07:58.925Z,97962.97
2023-05-22T01:10:54.167Z,97962.53
2023-05-22T01:13:54.953Z,97960.78
2023-05-22T01:16:54.848Z,97968.13
2023-05-22T01:20:10.704Z,97971.38
2023-05-22T01:23:54.072Z,97973.59
2023-05-22T01:27:00.809Z,97964.91
2023-05-22T01:30:05.252Z,97970.63
2023-05-22T01:32:59.400Z,97970.00
2023-05-22T01:35:53.991Z,97973.84
2023-05-22T01:38:43.789Z,97972.56
2023-05-22T01:41:32.499Z,97977.63
2023-05-22T01:44:22.143Z,97972.81
2023-05-22T01:47:11.051Z,97974.22
2023-05-22T01:50:00.436Z,97981.59
2023-05-22T01:53:13.325Z,97973.28
2023-05-22T01:56:08.535Z,97972.00
2023-05-22T01:59:05.592Z,97974.00
2023-05-22T02:01:56.394Z,97977.41
2023-05-22T02:04:50.359Z,97982.13
2023-05-22T02:07:43.258Z,97974.66
2023-05-22T02:10:32.996Z,97978.50
2023-05-22T02:13:23.827Z,97977.19
2023-05-22T02:16:12.998Z,97973.25
2023-05-22T02:19:06.617Z,97982.63
2023-05-22T02:21:57.294Z,97978.81
2023-05-22T02:24:51.775Z,97983.69
2023-05-22T02:27:42.667Z,97980.38
2023-05-22T02:30:35.019Z,97972.72
2023-05-22T02:33:24.866Z,97978.22
2023-05-22T02:36:14.647Z,97971.59
2023-05-22T02:39:02.475Z,97962.91
2023-05-22T02:41:51.656Z,97961.63
2023-05-22T02:44:39.677Z,97966.50
2023-05-22T02:47:27.861Z,97975.47
2023-05-22T02:50:16.009Z,97965.34
2023-05-22T02:53:03.818Z,97967.22
2023-05-22T02:55:53.967Z,97964.22
2023-05-22T02:58:43.376Z,97969.25
2023-05-22T03:01:31.467Z,97974.31
2023-05-22T03:04:19.149Z,97971.81
2023-05-22T03:07:08.210Z,97974.66
2023-05-22T03:09:56.516Z,97978.34
2023-05-22T03:12:44.803Z,97978.69
2023-05-22T03:15:33.866Z,97982.34
2023-05-22T03:18:21.984Z,97976.03
2023-05-22T03:21:10.520Z,97982.34
2023-05-22T03:23:58.422Z,97981.03
2023-05-22T03:26:49.286Z,97978.38
2023-05-22T03:29:39.402Z,97984.56
2023-05-22T03:32:30.550Z,97984.72
2023-05-22T03:35:19.972Z,97985.75
2023-05-22T03:38:07.956Z,97986.09
2023-05-22T03:40:55.846Z,97984.06
2023-05-22T03:43:45.033Z,97975.72
2023-05-22T03:46:33.062Z,97984.25
2023-05-22T03:49:28.993Z,97985.44
2023-05-22T03:52:16.935Z,97982.94
2023-05-22T03:55:04.989Z,97970.63
2023-05-22T03:57:52.299Z,97976.13
2023-05-22T04:00:40.472Z,97970.97
2023-05-22T04:03:28.465Z,97976.47
2023-05-22T04:06:22.038Z,97975.47
2023-05-22T04:09:12.683Z,97978.78
2023-05-22T04:12:01.817Z,97983.28
2023-05-22T04:14:49.912Z,97982.28
2023-05-22T04:17:42.175Z,97988.28
2023-05-22T04:20:30.141Z,97989.56
2023-05-22T04:23:19.186Z,97990.06
2023-05-22T04:26:08.719Z,97993.34
2023-05-22T04:28:56.440Z,97992.97
2023-05-22T04:31:44.733Z,97996.94
2023-05-22T04:34:33.744Z,98003.75
2023-05-22T04:37:21.989Z,98004.91
2023-05-22T04:40:15.123Z,98003.03
2023-05-22T04:43:03.658Z,98001.34
2023-05-22T04:45:51.699Z,97998.28
2023-05-22T04:48:40.237Z,97988.78
2023-05-22T04:51:28.094Z,97999.59
2023-05-22T04:54:15.892Z,97995.75
2023-05-22T04:57:05.875Z,97997.97
2023-05-22T04:59:54.373Z,98006.34
2023-05-22T05:02:44.050Z,97997.72
2023-05-22T05:05:31.979Z,98004.78
2023-05-22T05:08:20.489Z,97999.50
2023-05-22T05:11:08.432Z,98001.94
2023-05-22T05:13:57.692Z,98002.88
2023-05-22T05:16:46.933Z,98000.31
2023-05-22T05:19:36.843Z,97993.88
2023-05-22T05:22:25.240Z,97988.88
2023-05-22T05:25:13.976Z,97988.22
2023-05-22T05:28:01.654Z,97996.25
2023-05-22T05:30:50.866Z,97990.34
2023-05-22T05:33:38.296Z,97982.84
2023-05-22T05:36:27.407Z,97992.41
2023-05-22T05:39:15.309Z,97991.34
2023-05-22T05:42:02.760Z,97994.50
2023-05-22T05:44:50.395Z,98003.00
2023-05-22T05:47:39.379Z,97991.72
2023-05-22T05:50:27.345Z,97982.88
2023-05-22T05:53:17.346Z,97985.03
2023-05-22T05:56:06.823Z,97984.03
2023-05-22T05:58:54.661Z,97988.03
2023-05-22T06:01:48.226Z,97992.75
2023-05-22T06:04:38.792Z,97999.13
2023-05-22T06:07:30.145Z,98004.25
2023-05-22T06:10:18.917Z,97996.69
2023-05-22T06:13:09.706Z,97994.72
2023-05-22T06:16:01.320Z,97992.03
2023-05-22T06:18:52.509Z,97994.34
2023-05-22T06:21:42.347Z,97991.66
2023-05-22T06:24:32.070Z,97986.75
2023-05-22T06:27:20.326Z,97976.81
2023-05-22T06:30:10.053Z,97975.47
2023-05-22T06:32:58.584Z,97974.59
2023-05-22T06:35:46.604Z,97970.41
2023-05-22T06:38:38.060Z,97970.72
2023-05-22T06:41:26.187Z,97966.03
2023-05-22T06:44:13.995Z,97969.41
2023-05-22T06:47:02.048Z,97967.59
2023-05-22T06:49:49.810Z,97965.56
2023-05-22T06:52:38.926Z,97950.53
2023-05-22T06:55:28.412Z,97966.09
2023-05-22T06:58:16.094Z,97963.13
2023-05-22T07:01:04.101Z,97966.88
2023-05-22T07:03:51.852Z,97963.25
2023-05-22T07:06:41.544Z,97953.09
2023-05-22T07:09:29.458Z,97960.66
2023-05-22T07:12:20.452Z,97958.41
2023-05-22T07:15:12.225Z,97952.19
2023-05-22T07:18:00.425Z,97948.00
2023-05-22T07:20:48.449Z,97955.84
2023-05-22T07:23:36.059Z,97942.50
2023-05-22T07:26:23.695Z,97950.50
2023-05-22T07:29:17.819Z,97948.44
2023-05-22T07:32:06.161Z,97947.66
2023-05-22T07:34:53.978Z,97940.00
2023-05-22T07:37:41.830Z,97941.53
2023-05-22T07:40:29.941Z,97934.97
2023-05-22T07:43:17.787Z,97935.06
2023-05-22T07:46:07.220Z,97931.63
2023-05-22T07:48:55.057Z,97935.16
2023-05-22T07:51:43.254Z,97935.16
2023-05-22T07:54:30.909Z,97937.78
2023-05-22T07:57:18.776Z,97930.63
2023-05-22T08:00:13.913Z,97928.81
2023-05-22T08:03:03.824Z,97924.66
2023-05-22T08:05:51.863Z,97925.50
2023-05-22T08:08:39.343Z,97921.28
2023-05-22T08:11:27.613Z,97924.56
2023-05-22T08:14:16.043Z,97921.69
2023-05-22T08:17:04.354Z,97915.53
2023-05-22T08:19:53.459Z,97910.03
2023-05-22T08:22:41.872Z,97916.66
2023-05-22T08:25:29.752Z,97913.97
2023-05-22T08:28:17.708Z,97915.78
2023-05-22T08:31:05.270Z,97919.34
2023-05-22T08:33:52.707Z,97914.47
2023-05-22T08:36:41.671Z,97910.91
2023-05-22T08:39:30.771Z,97905.41
2023-05-22T08:42:18.529Z,97906.16
2023-05-22T08:45:08.149Z,97895.34
2023-05-22T08:47:59.759Z,97895.78
2023-05-22T08:50:57.120Z,97893.63
2023-05-22T08:53:52.820Z,97882.84
2023-05-22T08:56:52.883Z,97883.75
2023-05-22T08:59:45.834Z,97880.81
2023-05-22T09:02:34.374Z,97873.09
2023-05-22T09:05:26.560Z,97876.53
2023-05-22T09:08:20.459Z,97872.84
2023-05-22T09:11:10.957Z,97871.50
2023-05-22T09:14:09.379Z,97872.47
2023-05-22T09:16:56.969Z,97868.03
2023-05-22T09:19:46.674Z,97865.78
2023-05-22T09:22:39.232Z,97865.78
2023-05-22T09:25:27.514Z,97861.44
2023-05-22T09:28:16.308Z,97855.69
2023-05-22T09:31:06.340Z,97853.47
2023-05-22T09:33:55.942Z,97853.47
2023-05-22T09:36:43.813Z,97845.94
2023-05-22T09:39:41.867Z,97849.19
2023-05-22T09:42:30.130Z,97848.56
2023-05-22T09:45:24.083Z,97850.00
2023-05-22T09:48:12.648Z,97845.19
2023-05-22T09:51:02.409Z,97845.25
2023-05-22T09:53:53.054Z,97846.72
2023-05-22T09:56:51.825Z,97843.97
2023-05-22T09:59:41.726Z,97839.59
2023-05-22T10:02:34.614Z,97840.22
2023-05-22T10:05:28.796Z,97833.59
2023-05-22T10:08:24.491Z,97832.91
2023-05-22T10:11:13.705Z,97829.44
2023-05-22T10:14:05.261Z,97826.88
2023-05-22T10:16:54.658Z,97815.78
2023-05-22T10:19:48.186Z,97806.03
2023-05-22T10:22:38.555Z,97804.19
2023-05-22T10:25:27.207Z,97810.88
2023-05-22T10:28:27.561Z,97810.16
2023-05-22T10:31:28.475Z,97806.41
2023-05-22T10:34:29.567Z,97806.31
2023-05-22T10:37:41.531Z,97802.53
2023-05-22T10:40:33.635Z,97804.59
2023-05-22T10:43:23.676Z,97793.06
2023-05-22T10:46:14.469Z,97792.34
2023-05-22T10:49:03.922Z,97794.41
2023-05-22T10:51:59.869Z,97794.59
2023-05-22T10:54:53.564Z,97797.78
2023-05-22T10:57:43.632Z,97785.53
2023-05-22T11:00:33.036Z,97786.06
2023-05-22T11:03:22.844Z,97785.81
2023-05-22T11:06:35.242Z,97780.59
2023-05-22T11:09:30.885Z,97779.38
2023-05-22T11:12:31.122Z,97780.59
2023-05-22T11:15:19.091Z,97773.03
2023-05-22T11:18:07.924Z,97771.03
2023-05-22T11:20:56.139Z,97770.75
2023-05-22T11:23:44.089Z,97778.19
2023-05-22T11:26:33.210Z,97784.91
2023-05-22T11:29:25.063Z,97784.44
2023-05-22T11:32:15.715Z,97777.38
2023-05-22T11:35:05.352Z,97763.22
2023-05-22T11:37:55.222Z,97767.13
2023-05-22T11:40:43.830Z,97762.56
2023-05-22T11:43:34.373Z,97758.28
2023-05-22T11:46:23.567Z,97755.03
2023-05-22T11:49:13.217Z,97764.78
2023-05-22T11:52:01.182Z,97755.72
2023-05-22T11:54:50.149Z,97755.88
2023-05-22T11:57:39.383Z,97751.94
2023-05-22T12:00:29.366Z,97743.06
2023-05-22T12:03:18.878Z,97739.38
2023-05-22T12:06:08.541Z,97744.44
2023-05-22T12:08:56.243Z,97740.78
2023-05-22T12:11:49.414Z,97741.72
2023-05-22T12:14:37.056Z,97744.16
2023-05-22T12:17:27.259Z,97726.50
2023-05-22T12:20:16.348Z,97743.44
2023-05-22T12:23:03.880Z,97740.28
2023-05-22T12:26:02.289Z,97737.84
2023-05-22T12:28:54.679Z,97734.47
2023-05-22T12:31:44.365Z,97734.75
2023-05-22T12:34:35.567Z,97734.34
2023-05-22T12:37:26.789Z,97722.47
2023-05-22T12:40:14.408Z,97731.00
2023-05-22T12:43:02.374Z,97730.56
2023-05-22T12:45:49.826Z,97733.81
2023-05-22T12:48:39.270Z,97729.88
2023-05-22T12:51:29.782Z,97721.41
2023-05-22T12:54:20.735Z,97719.38
2023-05-22T12:57:08.780Z,97715.47
2023-05-22T12:59:58.549Z,97716.38
2023-05-22T13:02:49.692Z,97706.47
2023-05-22T13:05:37.760Z,97703.81
2023-05-22T13:08:26.324Z,97699.47
2023-05-22T13:11:15.342Z,97702.88
2023-05-22T13:14:03.377Z,97694.03
2023-05-22T13:16:51.409Z,97703.03
2023-05-22T13:19:39.550Z,97706.34
2023-05-22T13:22:27.441Z,97706.97
2023-05-22T13:25:15.140Z,97695.25
2023-05-22T13:28:04.435Z,97680.00
2023-05-22T13:30:52.231Z,97691.06
2023-05-22T13:33:40.092Z,97698.16
2023-05-22T13:36:27.880Z,97695.56
2023-05-22T13:39:18.224Z,97701.41
2023-05-22T13:42:07.169Z,97694.09
2023-05-22T13:44:56.504Z,97695.53
2023-05-22T13:47:44.201Z,97687.63
2023-05-22T13:50:32.110Z,97680.63
2023-05-22T13:53:20.322Z,97685.28
2023-05-22T13:56:08.251Z,97683.97
2023-05-22T13:58:56.108Z,97689.84
2023-05-22T14:01:45.060Z,97695.88
2023-05-22T14:04:33.328Z,97696.00
2023-05-22T14:07:20.969Z,97687.66
2023-05-22T14:10:10.329Z,97687.03
2023-05-22T14:12:57.896Z,97682.44
2023-05-22T14:15:48.143Z,97683.88
2023-05-22T14:18:37.572Z,97682.66
2023-05-22T14:21:25.361Z,97686.09
2023-05-22T14:24:13.477Z,97676.06
2023-05-22T14:27:01.515Z,97675.34
2023-05-22T14:29:49.179Z,97672.94
2023-05-22T14:32:36.805Z,97674.50
2023-05-22T14:35:25.932Z,97664.97
2023-05-22T14:38:13.790Z,97665.06
2023-05-22T14:41:01.342Z,97659.34
2023-05-22T14:43:49.042Z,97662.00
2023-05-22T14:46:36.935Z,97659.75
2023-05-22T14:49:24.780Z,97664.81
2023-05-22T14:52:13.678Z,97655.47
2023-05-22T14:55:01.604Z,97658.28
2023-05-22T14:57:49.249Z,97658.44
2023-05-22T15:00:36.856Z,97652.13
2023-05-22T15:03:24.363Z,97648.34
2023-05-22T15:06:12.116Z,97645.00
2023-05-22T15:09:01.972Z,97647.75
2023-05-22T15:11:51.093Z,97640.22
2023-05-22T15:14:39.311Z,97636.78
2023-05-22T15:17:30.069Z,97636.50
2023-05-22T15:20:18.332Z,97625.69
2023-05-22T15:23:06.910Z,97631.56
2023-05-22T15:25:56.612Z,97628.91
2023-05-22T15:28:46.578Z,97621.31
2023-05-22T15:31:34.301Z,97615.13
2023-05-22T15:34:22.045Z,97595.94
2023-05-22T15:37:09.625Z,97620.22
2023-05-22T15:39:57.231Z,97611.81
2023-05-22T15:42:46.247Z,97604.56
2023-05-22T15:45:34.106Z,97607.41
2023-05-22T15:48:21.896Z,97607.16
2023-05-22T15:51:09.950Z,97610.03
2023-05-22T15:53:58.674Z,97606.91
2023-05-22T15:56:46.565Z,97611.06
2023-05-22T15:59:35.518Z,97613.88
2023-05-22T16:02:23.773Z,97610.06
2023-05-22T16:05:11.902Z,97614.09
2023-05-22T16:07:59.566Z,97619.09
2023-05-22T16:10:47.347Z,97606.66
2023-05-22T16:13:35.437Z,97608.34
2023-05-22T16:16:24.471Z,97608.28
2023-05-22T16:19:12.488Z,97617.56
2023-05-22T16:22:00.152Z,97613.09
2023-05-22T16:24:47.781Z,97611.41
2023-05-22T16:27:35.439Z,97617.19
2023-05-22T16:30:23.685Z,97609.50
2023-05-22T16:33:13.237Z,97610.91
2023-05-22T16:36:01.091Z,97607.13
2023-05-22T16:38:48.717Z,97609.47
2023-05-22T16:41:37.711Z,97611.91
2023-05-22T16:44:25.598Z,97618.22
2023-05-22T16:47:13.497Z,97616.63
2023-05-22T16:50:02.796Z,97620.78
2023-05-22T16:52:50.378Z,97620.50
2023-05-22T16:55:38.710Z,97621.38
2023-05-22T16:58:26.577Z,97622.31
2023-05-22T17:01:14.902Z,97624.63
2023-05-22T17:04:02.586Z,97619.41
2023-05-22T17:06:53.737Z,97616.94
2023-05-22T17:09:41.198Z,97618.50
2023-05-22T17:12:28.814Z,97620.25
2023-05-22T17:15:16.510Z,97628.13
2023-05-22T17:18:04.078Z,97626.72
2023-05-22T17:20:54.014Z,97624.59
2023-05-22T17:23:43.627Z,97629.56
2023-05-22T17:26:33.211Z,97633.38
2023-05-22T17:29:20.884Z,97630.66
2023-05-22T17:32:08.828Z,97628.84
2023-05-22T17:34:56.295Z,97632.19
2023-05-22T17:37:44.011Z,97630.16
2023-05-22T17:40:44.660Z,97640.69
2023-05-22T17:43:36.784Z,97631.06
2023-05-22T17:46:26.584Z,97632.50
2023-05-22T17:49:14.390Z,97636.00
2023-05-22T17:52:02.457Z,97647.41
2023-05-22T17:54:50.320Z,97646.31
2023-05-22T17:57:39.398Z,97641.94
2023-05-22T18:00:27.168Z,97654.00
2023-05-22T18:03:15.002Z,97646.03
2023-05-22T18:06:02.884Z,97647.31
2023-05-22T18:08:50.731Z,97647.50
2023-05-22T18:11:38.585Z,97641.56
2023-05-22T18:14:27.929Z,97646.06
2023-05-22T18:17:15.622Z,97649.94
2023-05-22T18:20:04.270Z,97658.94
2023-05-22T18:22:52.100Z,97659.22
2023-05-22T18:25:40.184Z,97655.53
2023-05-22T18:28:28.510Z,97657.69
2023-05-22T18:31:18.145Z,97659.72
2023-05-22T18:34:06.378Z,97664.56
2023-05-22T18:36:55.794Z,97670.94
2023-05-22T18:39:45.854Z,97675.16
2023-05-22T18:42:36.358Z,97681.56
2023-05-22T18:45:24.910Z,97678.34
2023-05-22T18:48:14.470Z,97687.66
2023-05-22T18:51:02.528Z,97690.94
2023-05-22T18:53:52.209Z,97687.97
2023-05-22T18:56:41.142Z,97696.94
2023-05-22T18:59:30.953Z,97701.28
2023-05-22T19:02:21.430Z,97699.09
2023-05-22T19:05:11.993Z,97703.44
2023-05-22T19:07:59.890Z,97706.59
2023-05-22T19:10:47.653Z,97718.81
2023-05-22T19:13:35.353Z,97715.75
2023-05-22T19:16:22.966Z,97724.38
2023-05-22T19:19:11.605Z,97731.88
2023-05-22T19:22:01.097Z,97737.50
2023-05-22T19:24:48.954Z,97737.31
2023-05-22T19:27:38.987Z,97748.44
2023-05-22T19:30:27.187Z,97746.84
2023-05-22T19:33:16.946Z,97744.88
2023-05-22T19:36:06.598Z,97749.03
2023-05-22T19:38:55.924Z,97757.00
2023-05-22T19:41:43.846Z,97761.72
2023-05-22T19:44:31.482Z,97758.03
2023-05-22T19:47:19.524Z,97764.66
2023-05-22T19:50:09.328Z,97761.75
2023-05-22T19:52:57.457Z,97756.94
2023-05-22T19:55:47.750Z,97770.06
2023-05-22T19:58:36.034Z,97764.94
2023-05-22T20:01:24.630Z,97756.72
2023-05-22T20:04:12.602Z,97764.97
2023-05-22T20:07:02.308Z,97770.56
2023-05-22T20:09:50.477Z,97764.31
2023-05-22T20:12:39.936Z,97770.63
2023-05-22T20:15:27.383Z,97770.97
2023-05-22T20:18:15.416Z,97774.25
2023-05-22T20:21:06.325Z,97772.22
2023-05-22T20:23:55.526Z,97769.88
2023-05-22T20:26:43.569Z,97775.72
2023-05-22T20:29:32.749Z,97777.22
2023-05-22T20:32:20.604Z,97779.75
2023-05-22T20:35:10.932Z,97781.66
2023-05-22T20:38:02.989Z,97778.88
2023-05-22T20:40:52.071Z,97787.34
2023-05-22T20:43:44.212Z,97785.50
2023-05-22T20:46:33.835Z,97800.44
2023-05-22T20:49:21.836Z,97807.28
2023-05-22T20:52:10.067Z,97801.41
2023-05-22T20:54:57.949Z,97813.53
2023-05-22T20:57:45.556Z,97819.03
2023-05-22T21:00:34.915Z,97818.59
2023-05-22T21:03:25.811Z,97818.94
2023-05-22T21:06:13.806Z,97817.50
2023-05-22T21:09:01.743Z,97821.38
2023-05-22T21:11:49.722Z,97833.66
2023-05-22T21:14:37.321Z,97832.81
2023-05-22T21:17:27.794Z,97828.22
2023-05-22T21:20:17.493Z,97829.44
2023-05-22T21:23:05.246Z,97821.13
2023-05-22T21:25:52.944Z,97827.59
2023-05-22T21:28:43.142Z,97816.88
2023-05-22T21:31:31.845Z,97816.59
2023-05-22T21:34:20.892Z,97817.19
2023-05-22T21:37:10.157Z,97823.06
2023-05-22T21:39:58.104Z,97822.91
2023-05-22T21:42:47.327Z,97807.28
2023-05-22T21:45:36.880Z,97816.00
2023-05-22T21:48:24.656Z,97812.59
2023-05-22T21:51:12.170Z,97813.34
2023-05-22T21:54:01.459Z,97825.88
2023-05-22T21:56:49.356Z,97816.94
2023-05-22T21:59:37.112Z,97816.59
2023-05-22T22:02:25.100Z,97824.97
2023-05-22T22:05:13.047Z,97814.31
2023-05-22T22:08:00.648Z,97822.34
2023-05-22T22:10:49.606Z,97812.91
2023-05-22T22:13:37.408Z,97812.75
2023-05-22T22:16:26.152Z,97813.19
2023-05-22T22:19:15.664Z,97810.50
2023-05-22T22:22:03.932Z,97808.84
2023-05-22T22:24:51.373Z,97814.50
2023-05-22T22:27:40.206Z,97820.34
2023-05-22T22:30:28.225Z,97822.84
2023-05-22T22:33:16.473Z,97825.78
2023-05-22T22:36:04.232Z,97828.16
2023-05-22T22:38:51.705Z,97835.97
2023-05-22T22:41:39.401Z,97832.91
2023-05-22T22:44:28.413Z,97830.69
2023-05-22T22:47:16.138Z,97831.69
2023-05-22T22:50:04.026Z,97830.22
2023-05-22T22:52:52.129Z,97832.34
2023-05-22T22:55:40.192Z,97839.34
2023-05-22T22:58:27.999Z,97838.31
2023-05-22T23:01:16.959Z,97838.31
2023-05-22T23:04:04.775Z,97846.22
2023-05-22T23:06:52.685Z,97857.22
2023-05-22T23:09:40.585Z,97853.97
2023-05-22T23:12:28.554Z,97856.47
2023-05-22T23:15:24.282Z,97858.56
2023-05-22T23:18:13.974Z,97861.28
2023-05-22T23:21:01.643Z,97866.91
2023-05-22T23:23:49.136Z,97865.25
2023-05-22T23:26:37.029Z,97872.06
2023-05-22T23:29:24.810Z,97873.53
2023-05-22T23:32:14.597Z,97871.22
2023-05-22T23:35:05.775Z,97867.16
2023-05-22T23:37:56.366Z,97878.94
2023-05-22T23:40:43.858Z,97882.25
2023-05-22T23:43:31.621Z,97878.72
2023-05-22T23:46:21.219Z,97877.25
2023-05-22T23:49:09.203Z,97882.41
2023-05-22T23:51:58.227Z,97871.88
2023-05-22T23:54:46.245Z,97880.34
2023-05-22T23:57:36.945Z,97882.25
